createdAt,value
2023-05-18T00:04:27.883Z,30
2023-05-18T00:10:04.694Z,30
2023-05-18T00:26:09.144Z,29.9
2023-05-18T00:31:29.890Z,29.9
2023-05-18T00:37:07.773Z,29.9
2023-05-18T00:42:43.329Z,29.9
2023-05-18T00:48:35.918Z,29.9
2023-05-18T00:54:27.620Z,29.8
2023-05-18T01:00:03.424Z,29.9
2023-05-18T01:05:55.821Z,29.9
2023-05-18T01:11:16.777Z,30
2023-05-18T01:17:08.504Z,30.3
2023-05-18T01:22:59.812Z,30.7
2023-05-18T01:28:36.309Z,31.3
2023-05-18T01:34:27.537Z,31.8
2023-05-18T01:40:06.507Z,32.4
2023-05-18T01:45:58.565Z,33.1
2023-05-18T01:51:35.443Z,33.8
2023-05-18T02:02:49.498Z,35.3
2023-05-18T02:08:25.583Z,36.1
2023-05-18T02:14:16.850Z,36.7
2023-05-18T02:20:09.608Z,37.3
2023-05-18T02:26:03.988Z,37.7
2023-05-18T02:31:40.248Z,37.9
2023-05-18T02:37:32.796Z,37.9
2023-05-18T02:43:08.792Z,38
2023-05-18T02:54:37.597Z,38
2023-05-18T03:00:30.949Z,38
2023-05-18T03:06:24.167Z,37.9
2023-05-18T03:12:16.296Z,37.9
2023-05-18T03:18:07.920Z,37.9
2023-05-18T03:23:14.930Z,37.9
2023-05-18T03:28:51.534Z,37.9
2023-05-18T03:34:43.608Z,37.9
2023-05-18T03:40:35.334Z,37.9
2023-05-18T03:46:27.086Z,37.9
2023-05-18T03:52:03.604Z,37.9
2023-05-18T03:57:55.960Z,37.8
2023-05-18T04:03:49.180Z,37.8
2023-05-18T04:09:43.153Z,37.8
2023-05-18T04:15:34.529Z,37.8
2023-05-18T04:21:27.734Z,37.8
2023-05-18T04:27:19.427Z,37.6
2023-05-18T04:33:10.451Z,37.2
2023-05-18T04:38:48.499Z,36.9
2023-05-18T04:44:39.997Z,36.8
2023-05-18T04:50:32.604Z,37
2023-05-18T04:56:09.426Z,37.1
2023-05-18T05:02:00.411Z,37.2
2023-05-18T05:07:55.635Z,37.3
2023-05-18T05:13:47.889Z,37.3
2023-05-18T05:19:39.830Z,37.3
2023-05-18T05:25:32.253Z,37.3
2023-05-18T05:31:24.827Z,37.3
2023-05-18T05:37:01.381Z,37.3
2023-05-18T05:42:55.225Z,37.3
2023-05-18T05:48:47.321Z,37.2
2023-05-18T05:54:38.886Z,37.2
2023-05-18T06:00:30.484Z,37.2
2023-05-18T06:06:23.522Z,37.1
2023-05-18T06:12:17.335Z,37.1
2023-05-18T06:18:11.505Z,37.1
2023-05-18T06:24:05.319Z,37.1
2023-05-18T06:29:56.650Z,37.1
2023-05-18T06:35:49.441Z,37.1
2023-05-18T06:41:27.114Z,37
2023-05-18T06:47:18.392Z,36.9
2023-05-18T06:52:54.575Z,36.9
2023-05-18T06:58:31.516Z,36.9
2023-05-18T07:04:23.452Z,36.9
2023-05-18T07:10:16.140Z,36.8
2023-05-18T07:15:36.465Z,36.8
2023-05-18T07:21:31.201Z,36.8
2023-05-18T07:27:22.618Z,36.8
2023-05-18T07:32:59.468Z,36.8
2023-05-18T07:38:51.959Z,36.8
2023-05-18T07:44:28.574Z,36.7
2023-05-18T07:50:21.290Z,36.7
2023-05-18T07:55:57.298Z,36.6
2023-05-18T08:01:33.144Z,36.6
2023-05-18T08:07:10.958Z,36.6
2023-05-18T08:12:46.674Z,36.6
2023-05-18T08:18:55.894Z,36.6
2023-05-18T08:24:32.723Z,36.5
2023-05-18T08:30:10.068Z,36.6
2023-05-18T08:35:47.587Z,36.4
2023-05-18T08:41:24.317Z,36.4
2023-05-18T08:47:00.177Z,36.4
2023-05-18T08:52:40.135Z,36.4
2023-05-18T08:58:16.813Z,36.3
2023-05-18T09:03:53.606Z,36.3
2023-05-18T09:09:30.403Z,36.3
2023-05-18T09:15:08.699Z,36.3
2023-05-18T09:20:45.709Z,36.3
2023-05-18T09:26:22.190Z,36.2
2023-05-18T09:32:01.361Z,36.2
2023-05-18T09:37:38.450Z,36.1
2023-05-18T09:43:14.651Z,36.1
2023-05-18T09:48:37.434Z,36.1
2023-05-18T09:53:57.249Z,36.1
2023-05-18T09:59:31.986Z,36.1
2023-05-18T10:05:12.362Z,36.1
2023-05-18T10:10:33.821Z,36
2023-05-18T10:15:39.377Z,36
2023-05-18T10:21:14.886Z,36
2023-05-18T10:26:20.615Z,35.9
2023-05-18T10:32:00.172Z,35.9
2023-05-18T10:37:55.296Z,35.9
2023-05-18T10:43:19.048Z,35.9
2023-05-18T10:48:25.371Z,35.9
2023-05-18T10:53:47.080Z,35.8
2023-05-18T11:00:06.268Z,35.8
2023-05-18T11:05:27.565Z,35.8
2023-05-18T11:11:04.437Z,35.7
2023-05-18T11:16:24.975Z,35.8
2023-05-18T11:22:01.242Z,35.7
2023-05-18T11:27:53.626Z,35.6
2023-05-18T11:33:48.607Z,35.6
2023-05-18T11:39:26.378Z,35.6
2023-05-18T11:50:42.765Z,35.5
2023-05-18T12:01:43.278Z,35.4
2023-05-18T12:07:27.292Z,35.4
2023-05-18T12:13:03.774Z,35.4
2023-05-18T12:18:26.725Z,35.4
2023-05-18T12:24:01.509Z,35.1
2023-05-18T12:29:37.665Z,34.2
2023-05-18T12:34:59.774Z,34.4
2023-05-18T12:46:28.718Z,34.7
2023-05-18T12:52:22.779Z,34.7
2023-05-18T12:58:14.137Z,34.7
2023-05-18T13:03:51.228Z,34.6
2023-05-18T13:09:28.815Z,34.6
2023-05-18T13:15:46.617Z,34.6
2023-05-18T13:21:41.980Z,34.5
2023-05-18T13:27:20.382Z,34.5
2023-05-18T13:32:40.760Z,34.4
2023-05-18T13:38:34.313Z,34.4
2023-05-18T13:43:55.412Z,34.3
2023-05-18T13:49:32.961Z,34.3
2023-05-18T13:55:10.663Z,34.3
2023-05-18T14:01:03.421Z,34.2
2023-05-18T14:06:57.181Z,34.1
2023-05-18T14:12:17.600Z,34.1
2023-05-18T14:18:09.812Z,34.1
2023-05-18T14:24:00.869Z,34
2023-05-18T14:29:52.754Z,33.6
2023-05-18T14:35:44.638Z,33.5
2023-05-18T14:41:22.256Z,33.4
2023-05-18T14:47:29.856Z,33.4
2023-05-18T14:53:23.618Z,33.3
2023-05-18T14:59:13.822Z,33.2
2023-05-18T15:05:07.226Z,33.1
2023-05-18T15:10:58.942Z,33.1
2023-05-18T15:16:34.429Z,33
2023-05-18T15:22:26.741Z,33
2023-05-18T15:28:20.262Z,32.9
2023-05-18T15:34:11.247Z,32.9
2023-05-18T15:40:02.955Z,32.8
2023-05-18T15:45:55.132Z,32.4
2023-05-18T15:51:30.473Z,31.7
2023-05-18T15:57:22.650Z,30.9
2023-05-18T16:03:15.286Z,30
2023-05-18T16:08:50.858Z,29.2
2023-05-18T16:14:29.835Z,28.5
2023-05-18T16:20:22.979Z,27.9
2023-05-18T16:25:58.302Z,27.4
2023-05-18T16:31:35.557Z,27
2023-05-18T16:37:27.577Z,26.6
2023-05-18T16:43:19.884Z,26.3
2023-05-18T16:49:12.497Z,26
2023-05-18T16:55:07.425Z,25.8
2023-05-18T17:00:58.370Z,25.6
2023-05-18T17:07:06.793Z,25.4
2023-05-18T17:12:46.396Z,25.3
2023-05-18T17:18:22.759Z,25.2
2023-05-18T17:24:14.774Z,25.1
2023-05-18T17:30:20.330Z,25
2023-05-18T17:35:56.670Z,24.9
2023-05-18T17:41:48.206Z,24.9
2023-05-18T17:47:41.017Z,24.8
2023-05-18T17:53:32.226Z,24.8
2023-05-18T18:05:01.649Z,24.7
2023-05-18T18:10:38.206Z,24.6
2023-05-18T18:16:30.561Z,24.6
2023-05-18T18:22:08.105Z,24.5
2023-05-18T18:27:59.122Z,24.5
2023-05-18T18:38:57.689Z,24.4
2023-05-18T18:44:49.047Z,24.4
2023-05-18T18:50:41.538Z,24.3
2023-05-18T18:56:33.475Z,24.3
2023-05-18T19:02:08.580Z,24.2
2023-05-18T19:08:01.316Z,24
2023-05-18T19:13:38.152Z,23.8
2023-05-18T19:19:30.713Z,23.5
2023-05-18T19:25:22.931Z,23.3
2023-05-18T19:31:15.211Z,23.1
2023-05-18T19:37:08.119Z,22.9
2023-05-18T19:42:46.787Z,22.9
2023-05-18T19:48:40.164Z,22.9
2023-05-18T19:54:30.547Z,23.2
2023-05-18T20:00:22.408Z,23.4
2023-05-18T20:06:00.343Z,23.9
2023-05-18T20:11:51.538Z,24.4
2023-05-18T20:17:43.766Z,25
2023-05-18T20:23:21.165Z,25.5
2023-05-18T20:28:59.367Z,25.8
2023-05-18T20:34:20.920Z,26
2023-05-18T20:39:57.829Z,26.2
2023-05-18T20:45:33.590Z,26.3
2023-05-18T20:51:26.104Z,26.4
2023-05-18T20:57:18.046Z,26.5
2023-05-18T21:03:09.824Z,26.5
2023-05-18T21:14:11.761Z,26.5
2023-05-18T21:20:03.302Z,26.6
2023-05-18T21:25:54.625Z,26.5
2023-05-18T21:31:47.247Z,26.6
2023-05-18T21:37:38.790Z,26.6
2023-05-18T21:43:15.702Z,26.6
2023-05-18T21:48:39.556Z,26.6
2023-05-18T21:54:15.304Z,26.5
2023-05-18T21:59:52.803Z,26.5
2023-05-18T22:05:45.440Z,26.6
2023-05-18T22:11:36.475Z,26.6
2023-05-18T22:16:57.008Z,26.6
2023-05-18T22:22:45.727Z,26.6
2023-05-18T22:28:20.625Z,26.6
2023-05-18T22:33:57.633Z,26.6
2023-05-18T22:39:33.650Z,26.6
2023-05-18T22:45:08.863Z,26.6
2023-05-18T22:51:00.831Z,26.6
2023-05-18T22:56:37.466Z,26.6
2023-05-18T23:02:13.448Z,26.6
2023-05-18T23:07:49.881Z,26.6
2023-05-18T23:13:41.523Z,26.5
2023-05-18T23:19:33.158Z,26.5
2023-05-18T23:25:24.998Z,26.5
2023-05-18T23:31:17.070Z,26.5
2023-05-18T23:37:09.473Z,26.5
2023-05-18T23:43:01.492Z,26.5
2023-05-18T23:48:53.778Z,26.5
2023-05-18T23:54:45.091Z,26.4
